createdAt,value
2019-01-13T00:02:15.580Z,17.10
2019-01-13T00:04:45.958Z,17.47
2019-01-13T00:07:17.541Z,17.63
2019-01-13T00:09:48.152Z,18.17
2019-01-13T00:12:18.741Z,17.97
2019-01-13T00:14:50.657Z,17.60
2019-01-13T00:17:21.257Z,16.83
2019-01-13T00:19:53.005Z,17.60
2019-01-13T00:22:23.347Z,16.03
2019-01-13T00:25:02.127Z,17.80
2019-01-13T00:27:29.183Z,18.67
2019-01-13T00:29:59.863Z,16.57
2019-01-13T00:32:30.260Z,16.10
2019-01-13T00:35:00.981Z,17.00
2019-01-13T00:37:33.338Z,16.70
2019-01-13T00:40:04.427Z,16.97
2019-01-13T00:42:39.824Z,16.37
2019-01-13T00:45:11.081Z,16.80
2019-01-13T00:47:41.775Z,17.03
2019-01-13T00:50:14.270Z,15.67
2019-01-13T00:52:45.195Z,17.43
2019-01-13T00:55:15.992Z,16.25
2019-01-13T00:57:46.455Z,16.83
2019-01-13T01:00:26.521Z,16.37
2019-01-13T01:02:53.178Z,16.17
2019-01-13T01:05:24.237Z,15.33
2019-01-13T01:07:54.943Z,15.20
2019-01-13T01:10:25.608Z,17.37
2019-01-13T01:13:04.884Z,16.00
2019-01-13T01:15:35.278Z,16.25
2019-01-13T01:18:05.761Z,16.17
2019-01-13T01:20:37.087Z,15.90
2019-01-13T01:23:07.398Z,16.00
2019-01-13T01:25:39.125Z,15.80
2019-01-13T01:28:09.525Z,15.65
2019-01-13T01:30:40.189Z,16.27
2019-01-13T01:33:10.855Z,17.17
2019-01-13T01:35:41.512Z,16.17
2019-01-13T01:38:12.077Z,16.60
2019-01-13T01:40:42.828Z,15.93
2019-01-13T01:43:13.491Z,15.78
2019-01-13T01:45:43.850Z,16.43
2019-01-13T01:48:14.546Z,16.87
2019-01-13T01:50:44.876Z,17.73
2019-01-13T01:53:24.248Z,17.17
2019-01-13T01:55:49.251Z,15.60
2019-01-13T01:58:26.499Z,17.15
2019-01-13T02:00:56.004Z,17.53
2019-01-13T02:03:26.739Z,18.43
2019-01-13T02:05:57.029Z,18.43
2019-01-13T02:08:28.659Z,19.12
2019-01-13T02:10:58.981Z,18.43
2019-01-13T02:13:29.594Z,19.97
2019-01-13T02:15:59.911Z,20.03
2019-01-13T02:18:30.508Z,19.25
2019-01-13T02:21:07.242Z,21.13
2019-01-13T02:23:37.742Z,22.50
2019-01-13T02:26:08.101Z,22.97
2019-01-13T02:28:40.094Z,24.70
2019-01-13T02:31:10.437Z,22.73
2019-01-13T02:33:41.804Z,22.52
2019-01-13T02:36:12.434Z,20.83
2019-01-13T02:38:45.386Z,20.23
2019-01-13T02:41:17.308Z,19.00
2019-01-13T02:43:47.907Z,19.17
2019-01-13T02:46:18.233Z,18.33
2019-01-13T02:48:49.776Z,18.20
2019-01-13T02:51:20.089Z,18.57
2019-01-13T02:53:50.426Z,17.63
2019-01-13T02:56:21.119Z,17.17
2019-01-13T02:58:51.793Z,19.27
2019-01-13T03:01:23.535Z,17.77
2019-01-13T03:03:53.899Z,17.50
2019-01-13T03:06:24.401Z,16.23
2019-01-13T03:08:58.133Z,16.50
2019-01-13T03:11:28.469Z,16.13
2019-01-13T03:13:58.869Z,17.03
2019-01-13T03:16:29.685Z,15.32
2019-01-13T03:18:59.996Z,17.13
2019-01-13T03:21:30.573Z,15.48
2019-01-13T03:24:00.943Z,16.70
2019-01-13T03:26:34.723Z,16.13
2019-01-13T03:29:05.215Z,16.47
2019-01-13T03:31:40.721Z,16.97
2019-01-13T03:34:11.035Z,18.13
2019-01-13T03:36:41.310Z,18.00
2019-01-13T03:39:11.765Z,18.00
2019-01-13T03:41:42.799Z,32.48
2019-01-13T03:44:13.155Z,78.40
2019-01-13T03:46:44.856Z,78.57
2019-01-13T03:49:15.177Z,60.37
2019-01-13T03:51:45.845Z,74.25
2019-01-13T03:54:16.741Z,65.32
2019-01-13T03:56:47.360Z,50.05
2019-01-13T03:59:17.992Z,38.13
2019-01-13T04:01:51.033Z,31.74
2019-01-13T04:04:21.510Z,27.67
2019-01-13T04:06:51.854Z,26.57
2019-01-13T04:09:27.078Z,25.50
2019-01-13T04:11:57.504Z,27.80
2019-01-13T04:14:28.506Z,25.12
2019-01-13T04:16:58.885Z,27.20
2019-01-13T04:19:29.250Z,28.97
2019-01-13T04:21:59.800Z,27.30
2019-01-13T04:24:30.219Z,27.30
2019-01-13T04:27:00.787Z,32.93
2019-01-13T04:29:31.108Z,30.50
2019-01-13T04:32:01.624Z,28.40
2019-01-13T04:34:32.214Z,27.95
2019-01-13T04:37:02.852Z,26.70
2019-01-13T04:39:35.797Z,28.20
2019-01-13T04:42:06.167Z,31.73
2019-01-13T04:44:38.344Z,32.17
2019-01-13T04:47:12.056Z,31.50
2019-01-13T04:49:42.362Z,35.17
2019-01-13T04:52:12.646Z,32.57
2019-01-13T04:54:42.980Z,30.43
2019-01-13T04:57:18.448Z,29.03
2019-01-13T04:59:47.227Z,26.13
2019-01-13T05:02:17.546Z,25.00
2019-01-13T05:04:48.003Z,24.30
2019-01-13T05:07:20.464Z,25.27
2019-01-13T05:09:50.991Z,23.50
2019-01-13T05:12:21.343Z,27.60
2019-01-13T05:14:51.705Z,26.83
2019-01-13T05:17:22.628Z,26.37
2019-01-13T05:19:52.972Z,24.50
2019-01-13T05:22:26.513Z,22.77
2019-01-13T05:24:56.842Z,20.93
2019-01-13T05:27:29.779Z,22.32
2019-01-13T05:30:00.193Z,20.33
2019-01-13T05:32:32.047Z,21.85
2019-01-13T05:35:02.313Z,20.30
2019-01-13T05:37:33.140Z,21.70
2019-01-13T05:40:03.458Z,21.03
2019-01-13T05:42:33.975Z,20.70
2019-01-13T05:45:05.601Z,19.77
2019-01-13T05:47:36.272Z,19.40
2019-01-13T05:50:07.986Z,18.60
2019-01-13T05:52:39.978Z,18.57
2019-01-13T05:55:10.370Z,18.03
2019-01-13T05:57:47.175Z,19.40
2019-01-13T06:00:25.869Z,17.70
2019-01-13T06:02:58.567Z,17.60
2019-01-13T06:05:29.464Z,16.13
2019-01-13T06:08:00.176Z,16.65
2019-01-13T06:10:30.487Z,16.23
2019-01-13T06:13:03.654Z,15.90
2019-01-13T06:15:34.642Z,16.27
2019-01-13T06:18:05.227Z,17.87
2019-01-13T06:20:35.529Z,16.33
2019-01-13T06:23:07.042Z,15.14
2019-01-13T06:25:42.330Z,15.43
2019-01-13T06:28:09.844Z,14.78
2019-01-13T06:30:40.124Z,14.27
2019-01-13T06:33:10.698Z,14.87
2019-01-13T06:35:41.007Z,14.47
2019-01-13T06:38:16.834Z,14.75
2019-01-13T06:40:47.153Z,14.13
2019-01-13T06:43:17.438Z,15.00
2019-01-13T06:45:47.754Z,13.90
2019-01-13T06:48:18.185Z,14.70
2019-01-13T06:50:48.694Z,13.88
2019-01-13T06:53:19.159Z,13.50
2019-01-13T06:55:49.642Z,13.57
2019-01-13T06:58:19.978Z,14.20
2019-01-13T07:00:52.297Z,12.90
2019-01-13T07:03:22.706Z,12.37
2019-01-13T07:05:53.130Z,12.80
2019-01-13T07:08:23.951Z,13.23
2019-01-13T07:10:54.556Z,12.82
2019-01-13T07:13:26.317Z,13.63
2019-01-13T07:15:58.964Z,15.60
2019-01-13T07:18:30.536Z,15.50
2019-01-13T07:21:02.758Z,15.85
2019-01-13T07:23:33.103Z,20.27
2019-01-13T07:26:04.774Z,23.07
2019-01-13T07:28:35.452Z,24.15
2019-01-13T07:31:06.062Z,23.02
2019-01-13T07:33:36.412Z,23.63
2019-01-13T07:36:07.141Z,22.17
2019-01-13T07:38:37.667Z,23.30
2019-01-13T07:41:12.243Z,21.07
2019-01-13T07:43:42.853Z,20.97
2019-01-13T07:46:20.644Z,17.30
2019-01-13T07:48:51.209Z,19.07
2019-01-13T07:51:24.342Z,16.12
2019-01-13T07:53:56.237Z,17.70
2019-01-13T07:56:27.401Z,14.60
2019-01-13T07:58:59.515Z,13.03
2019-01-13T08:01:29.828Z,12.40
2019-01-13T08:04:00.173Z,12.00
2019-01-13T08:06:31.913Z,12.25
2019-01-13T08:09:05.284Z,11.15
2019-01-13T08:11:35.579Z,11.57
2019-01-13T08:14:06.526Z,10.87
2019-01-13T08:16:39.060Z,11.20
2019-01-13T08:19:09.716Z,10.83
2019-01-13T08:21:40.049Z,11.10
2019-01-13T08:24:10.390Z,12.47
2019-01-13T08:26:49.906Z,11.40
2019-01-13T08:29:20.581Z,11.03
2019-01-13T08:32:02.042Z,11.03
2019-01-13T08:34:32.527Z,10.17
2019-01-13T08:37:14.546Z,12.28
2019-01-13T08:39:45.370Z,11.17
2019-01-13T08:42:17.072Z,12.45
2019-01-13T08:44:49.121Z,11.73
2019-01-13T08:47:19.524Z,11.60
2019-01-13T08:49:50.056Z,12.70
2019-01-13T08:52:25.983Z,13.10
2019-01-13T08:54:56.361Z,13.20
2019-01-13T08:57:26.855Z,12.40
2019-01-13T09:02:19.764Z,13.87
2019-01-13T09:04:50.075Z,14.50
2019-01-13T09:07:23.200Z,14.27
2019-01-13T09:10:14.216Z,14.70
2019-01-13T09:12:44.922Z,15.30
2019-01-13T09:15:19.841Z,15.57
2019-01-13T09:17:52.536Z,16.70
2019-01-13T09:20:28.225Z,16.93
2019-01-13T09:23:00.314Z,17.05
2019-01-13T09:25:32.418Z,18.17
2019-01-13T09:28:04.002Z,18.17
2019-01-13T09:30:34.331Z,19.77
2019-01-13T09:33:08.013Z,18.17
2019-01-13T09:35:38.297Z,18.87
2019-01-13T09:38:09.186Z,20.50
2019-01-13T09:40:39.455Z,19.40
2019-01-13T09:43:10.022Z,19.35
2019-01-13T09:45:40.338Z,19.57
2019-01-13T09:48:10.927Z,20.07
2019-01-13T09:50:45.839Z,19.03
2019-01-13T09:53:16.205Z,19.30
2019-01-13T09:55:46.519Z,20.83
2019-01-13T09:58:17.156Z,20.10
2019-01-13T10:00:47.758Z,19.07
2019-01-13T10:03:18.295Z,19.80
2019-01-13T10:05:48.815Z,19.73
2019-01-13T10:08:20.595Z,18.03
2019-01-13T10:10:52.744Z,18.27
2019-01-13T10:13:32.229Z,17.98
2019-01-13T10:16:02.624Z,18.90
2019-01-13T10:18:34.134Z,18.13
2019-01-13T10:21:04.781Z,17.65
2019-01-13T10:23:36.480Z,16.97
2019-01-13T10:26:11.446Z,18.90
2019-01-13T10:28:42.424Z,18.23
2019-01-13T10:31:12.897Z,17.37
2019-01-13T10:33:45.753Z,17.63
2019-01-13T10:36:16.096Z,16.87
2019-01-13T10:38:46.778Z,15.85
2019-01-13T10:41:17.510Z,15.78
2019-01-13T10:43:49.780Z,14.70
2019-01-13T10:46:22.271Z,16.16
2019-01-13T10:49:01.532Z,15.70
2019-01-13T10:51:32.089Z,15.40
2019-01-13T10:54:09.247Z,15.22
2019-01-13T10:56:41.846Z,14.53
2019-01-13T10:59:12.200Z,15.03
2019-01-13T11:01:47.751Z,14.07
2019-01-13T11:04:18.107Z,13.23
2019-01-13T11:06:48.483Z,13.73
2019-01-13T11:09:19.105Z,11.83
2019-01-13T11:11:55.970Z,12.20
2019-01-13T11:14:28.179Z,12.13
2019-01-13T11:16:58.667Z,11.77
2019-01-13T11:19:29.308Z,11.67
2019-01-13T11:21:59.843Z,11.10
2019-01-13T11:24:31.991Z,10.65
2019-01-13T11:27:02.405Z,9.53
2019-01-13T11:29:34.597Z,9.48
2019-01-13T11:32:07.979Z,9.73
2019-01-13T11:34:39.157Z,10.00
2019-01-13T11:37:11.259Z,9.40
2019-01-13T11:39:41.834Z,9.40
2019-01-13T11:42:17.113Z,9.03
2019-01-13T11:44:47.760Z,9.17
2019-01-13T11:47:18.135Z,8.67
2019-01-13T11:49:48.762Z,8.77
2019-01-13T11:52:19.114Z,9.30
2019-01-13T11:54:50.441Z,9.03
2019-01-13T11:57:20.787Z,8.53
2019-01-13T11:59:56.423Z,8.06
2019-01-13T12:02:32.534Z,8.57
2019-01-13T12:05:01.066Z,8.60
2019-01-13T12:07:33.055Z,8.13
2019-01-13T12:10:15.471Z,8.20
2019-01-13T12:12:44.642Z,8.90
2019-01-13T12:15:18.474Z,8.03
2019-01-13T12:17:49.969Z,8.80
2019-01-13T12:20:24.886Z,9.28
2019-01-13T12:22:54.090Z,8.70
2019-01-13T12:25:29.498Z,9.07
2019-01-13T12:28:00.895Z,9.83
2019-01-13T12:30:32.989Z,9.55
2019-01-13T12:33:03.522Z,10.27
2019-01-13T12:35:34.166Z,10.03
2019-01-13T12:38:05.023Z,10.07
2019-01-13T12:40:36.719Z,9.16
2019-01-13T12:43:09.263Z,9.40
2019-01-13T12:45:39.808Z,9.25
2019-01-13T12:48:16.181Z,10.27
2019-01-13T12:50:48.426Z,9.80
2019-01-13T12:53:18.811Z,10.13
2019-01-13T12:55:50.904Z,9.70
2019-01-13T12:58:21.601Z,8.95
2019-01-13T13:00:58.530Z,8.60
2019-01-13T13:03:31.756Z,9.93
2019-01-13T13:06:06.623Z,8.80
2019-01-13T13:08:38.604Z,8.90
2019-01-13T13:11:10.335Z,8.50
2019-01-13T13:13:40.950Z,8.67
2019-01-13T13:16:11.583Z,8.83
2019-01-13T13:18:42.060Z,8.50
2019-01-13T13:21:12.950Z,8.70
2019-01-13T13:23:46.632Z,7.97
2019-01-13T13:26:17.230Z,8.63
2019-01-13T13:28:51.570Z,8.57
2019-01-13T13:31:22.554Z,7.96
2019-01-13T13:33:54.874Z,8.13
2019-01-13T13:36:27.894Z,8.65
2019-01-13T13:38:58.538Z,7.97
2019-01-13T13:41:31.021Z,7.37
2019-01-13T13:44:01.406Z,8.43
2019-01-13T13:46:32.292Z,8.85
2019-01-13T13:49:02.788Z,7.37
2019-01-13T13:51:37.932Z,8.70
2019-01-13T13:54:08.304Z,8.10
2019-01-13T13:56:39.011Z,7.40
2019-01-13T13:59:09.385Z,7.20
2019-01-13T14:01:39.929Z,8.30
2019-01-13T14:04:10.381Z,7.40
2019-01-13T14:06:40.948Z,8.30
2019-01-13T14:09:13.111Z,8.47
2019-01-13T14:11:43.897Z,7.87
2019-01-13T14:14:14.271Z,8.90
2019-01-13T14:16:46.884Z,8.40
2019-01-13T14:19:19.415Z,8.70
2019-01-13T14:21:49.743Z,9.20
2019-01-13T14:24:20.226Z,9.48
2019-01-13T14:26:51.031Z,8.90
2019-01-13T14:29:21.446Z,9.93
2019-01-13T14:31:51.813Z,10.00
2019-01-13T14:34:25.475Z,9.00
2019-01-13T14:36:55.817Z,9.30
2019-01-13T14:39:26.466Z,10.04
2019-01-13T14:41:58.776Z,9.90
2019-01-13T14:44:29.486Z,9.88
2019-01-13T14:47:01.941Z,9.83
2019-01-13T14:49:33.982Z,9.25
2019-01-13T14:52:04.504Z,8.43
2019-01-13T14:54:37.154Z,9.98
2019-01-13T14:57:07.868Z,9.50
2019-01-13T14:59:43.540Z,8.63
2019-01-13T15:02:14.998Z,8.73
2019-01-13T15:04:56.587Z,8.88
2019-01-13T15:07:22.122Z,9.00
2019-01-13T15:09:53.927Z,9.30
2019-01-13T15:12:24.513Z,9.17
2019-01-13T15:14:55.287Z,9.20
2019-01-13T15:17:25.670Z,9.87
2019-01-13T15:19:57.531Z,10.13
2019-01-13T15:22:28.047Z,9.80
2019-01-13T15:25:01.343Z,10.80
2019-01-13T15:27:33.362Z,10.60
2019-01-13T15:30:05.537Z,11.13
2019-01-13T15:32:35.922Z,10.13
2019-01-13T15:35:07.248Z,10.93
2019-01-13T15:37:40.959Z,11.67
2019-01-13T15:40:15.581Z,11.78
2019-01-13T15:42:49.029Z,11.43
2019-01-13T15:45:21.040Z,11.95
2019-01-13T15:47:51.366Z,11.50
2019-01-13T15:50:25.389Z,12.56
2019-01-13T15:52:55.760Z,12.17
2019-01-13T15:55:27.657Z,11.20
2019-01-13T15:57:58.199Z,12.07
2019-01-13T16:00:34.238Z,12.35
2019-01-13T16:03:08.301Z,13.50
2019-01-13T16:05:42.561Z,13.17
2019-01-13T16:08:14.559Z,13.90
2019-01-13T16:10:48.413Z,12.83
2019-01-13T16:13:18.889Z,13.43
2019-01-13T16:15:49.655Z,13.43
2019-01-13T16:18:20.007Z,14.07
2019-01-13T16:20:51.816Z,13.63
2019-01-13T16:23:24.588Z,13.23
2019-01-13T16:25:55.560Z,13.83
2019-01-13T16:28:25.917Z,13.73
2019-01-13T16:30:56.855Z,13.90
2019-01-13T16:33:27.486Z,13.17
2019-01-13T16:36:01.738Z,13.33
2019-01-13T16:38:32.568Z,14.30
2019-01-13T16:41:08.568Z,14.00
2019-01-13T16:43:40.202Z,14.23
2019-01-13T16:46:11.027Z,13.43
2019-01-13T16:48:41.634Z,13.77
2019-01-13T16:51:13.291Z,14.00
2019-01-13T16:53:43.712Z,13.73
2019-01-13T16:56:14.556Z,13.13
2019-01-13T16:58:45.529Z,13.00
2019-01-13T17:01:15.953Z,13.77
2019-01-13T17:03:47.666Z,13.10
2019-01-13T17:06:18.010Z,13.57
2019-01-13T17:08:48.951Z,12.90
2019-01-13T17:11:22.700Z,14.73
2019-01-13T17:13:55.744Z,13.33
2019-01-13T17:16:31.250Z,13.63
2019-01-13T17:19:01.376Z,13.93
2019-01-13T17:21:31.828Z,13.33
2019-01-13T17:24:02.697Z,12.87
2019-01-13T17:26:33.118Z,12.03
2019-01-13T17:29:03.784Z,11.57
2019-01-13T17:31:34.175Z,10.57
2019-01-13T17:34:04.711Z,9.97
2019-01-13T17:36:40.921Z,10.30
2019-01-13T17:39:13.476Z,9.85
2019-01-13T17:41:44.048Z,8.73
2019-01-13T17:44:14.694Z,7.90
2019-01-13T17:46:45.066Z,8.47
2019-01-13T17:49:15.698Z,7.78
2019-01-13T17:51:46.062Z,7.33
2019-01-13T17:54:16.761Z,7.40
2019-01-13T17:56:47.430Z,8.10
2019-01-13T17:59:18.030Z,8.65
2019-01-13T18:01:52.636Z,7.67
2019-01-13T18:04:23.505Z,8.40
2019-01-13T18:06:53.973Z,6.80
2019-01-13T18:09:25.850Z,6.17
2019-01-13T18:11:57.252Z,6.77
2019-01-13T18:14:36.222Z,5.93
2019-01-13T18:17:07.572Z,4.97
2019-01-13T18:19:49.500Z,4.92
2019-01-13T18:22:20.484Z,3.03
2019-01-13T18:24:56.301Z,2.27
2019-01-13T18:27:28.383Z,2.23
2019-01-13T18:30:02.491Z,2.20
2019-01-13T18:32:33.093Z,2.20
2019-01-13T18:35:04.953Z,1.63
2019-01-13T18:37:48.428Z,1.87
2019-01-13T18:40:20.016Z,1.63
2019-01-13T18:42:51.927Z,1.70
2019-01-13T18:45:22.799Z,1.77
2019-01-13T18:47:55.355Z,2.47
2019-01-13T18:50:26.159Z,2.20
2019-01-13T18:53:04.153Z,1.98
2019-01-13T18:55:49.975Z,2.63
2019-01-13T18:58:22.681Z,1.85
2019-01-13T19:00:54.138Z,2.07
2019-01-13T19:03:24.877Z,1.92
2019-01-13T19:06:06.371Z,2.30
2019-01-13T19:08:33.334Z,2.80
2019-01-13T19:11:25.713Z,2.50
2019-01-13T19:14:42.076Z,3.00
2019-01-13T19:17:26.708Z,3.27
2019-01-13T19:20:21.603Z,3.85
2019-01-13T19:23:01.020Z,3.70
2019-01-13T19:25:38.139Z,3.40
2019-01-13T19:28:09.011Z,3.47
2019-01-13T19:30:51.523Z,3.67
2019-01-13T19:33:18.977Z,3.02
2019-01-13T19:36:06.528Z,2.93
2019-01-13T19:38:24.835Z,3.10
2019-01-13T19:40:55.978Z,3.20
2019-01-13T19:43:26.699Z,3.30
2019-01-13T19:45:57.273Z,3.80
2019-01-13T19:48:31.163Z,3.07
2019-01-13T19:51:01.926Z,3.57
2019-01-13T19:53:42.504Z,4.10
2019-01-13T19:56:12.959Z,3.20
2019-01-13T19:58:47.849Z,3.90
2019-01-13T20:01:19.949Z,3.65
2019-01-13T20:04:03.321Z,3.60
2019-01-13T20:06:24.415Z,3.13
2019-01-13T20:08:54.706Z,3.00
2019-01-13T20:11:25.091Z,3.40
2019-01-13T20:13:55.499Z,2.97
2019-01-13T20:16:26.331Z,3.42
2019-01-13T20:18:56.745Z,3.30
2019-01-13T20:21:27.652Z,3.50
2019-01-13T20:23:57.992Z,4.13
2019-01-13T20:26:29.048Z,3.70
2019-01-13T20:29:00.058Z,3.40
2019-01-13T20:31:31.099Z,4.20
2019-01-13T20:34:01.542Z,5.03
2019-01-13T20:36:33.094Z,4.47
2019-01-13T20:39:06.509Z,3.87
2019-01-13T20:41:37.210Z,4.05
2019-01-13T20:44:09.284Z,4.13
2019-01-13T20:46:41.630Z,4.60
2019-01-13T20:49:19.629Z,4.33
2019-01-13T20:51:47.929Z,4.35
2019-01-13T20:54:18.498Z,4.50
2019-01-13T20:56:51.279Z,4.27
2019-01-13T20:59:23.131Z,4.57
2019-01-13T21:01:57.736Z,4.03
2019-01-13T21:04:28.403Z,3.80
2019-01-13T21:07:00.021Z,4.23
2019-01-13T21:09:30.341Z,3.70
2019-01-13T21:12:01.139Z,4.23
2019-01-13T21:14:31.739Z,4.70
2019-01-13T21:17:02.313Z,4.53
2019-01-13T21:19:33.032Z,4.10
2019-01-13T21:22:03.704Z,3.37
2019-01-13T21:24:34.146Z,3.60
2019-01-13T21:27:04.676Z,3.80
2019-01-13T21:29:35.286Z,3.65
2019-01-13T21:32:05.997Z,3.23
2019-01-13T21:34:36.639Z,3.83
2019-01-13T21:37:07.141Z,4.87
2019-01-13T21:39:37.782Z,4.42
2019-01-13T21:42:10.367Z,4.07
2019-01-13T21:44:40.952Z,3.87
2019-01-13T21:47:11.302Z,3.70
2019-01-13T21:49:44.409Z,4.20
2019-01-13T21:52:18.869Z,4.45
2019-01-13T21:54:49.589Z,4.92
2019-01-13T21:57:22.817Z,4.63
2019-01-13T21:59:53.819Z,3.77
2019-01-13T22:02:24.298Z,5.17
2019-01-13T22:04:56.487Z,4.40
2019-01-13T22:07:27.211Z,3.92
2019-01-13T22:10:02.983Z,3.87
2019-01-13T22:12:33.340Z,4.00
2019-01-13T22:15:05.758Z,4.37
2019-01-13T22:17:36.212Z,3.17
2019-01-13T22:20:09.367Z,5.00
2019-01-13T22:22:44.567Z,3.93
2019-01-13T22:25:17.645Z,3.95
2019-01-13T22:27:48.092Z,4.03
2019-01-13T22:30:20.475Z,4.13
2019-01-13T22:32:50.829Z,4.23
2019-01-13T22:35:21.432Z,3.60
2019-01-13T22:37:55.854Z,4.20
2019-01-13T22:40:25.082Z,4.00
2019-01-13T22:42:55.579Z,4.00
2019-01-13T22:45:26.016Z,3.80
2019-01-13T22:47:56.270Z,4.17
2019-01-13T22:50:26.685Z,3.73
2019-01-13T22:52:57.479Z,2.77
2019-01-13T22:55:27.847Z,3.73
2019-01-13T22:57:58.138Z,3.13
2019-01-13T23:00:54.657Z,2.40
2019-01-13T23:03:25.078Z,2.03
2019-01-13T23:05:55.926Z,1.92
2019-01-13T23:08:26.593Z,1.50
2019-01-13T23:10:57.246Z,1.33
2019-01-13T23:13:27.898Z,1.53
2019-01-13T23:16:01.007Z,1.77
2019-01-13T23:18:31.318Z,1.60
2019-01-13T23:21:03.882Z,1.33
2019-01-13T23:23:34.512Z,1.57
2019-01-13T23:26:05.158Z,2.13
2019-01-13T23:28:35.841Z,1.90
2019-01-13T23:31:10.112Z,1.95
2019-01-13T23:33:40.970Z,2.40
2019-01-13T23:36:11.684Z,2.13
2019-01-13T23:38:42.301Z,2.73
2019-01-13T23:41:12.850Z,2.20
2019-01-13T23:43:43.310Z,2.10
2019-01-13T23:46:16.328Z,2.13
2019-01-13T23:48:46.751Z,2.67
2019-01-13T23:51:17.069Z,3.20
2019-01-13T23:53:47.651Z,2.83
2019-01-13T23:56:17.963Z,2.37
2019-01-13T23:58:50.845Z,2.50
